sensor_id;sensor_type;location;lat;lon;timestamp;P1;durP1;ratioP1;P2;durP2;ratioP2
12151;SDS011;6139;51.274;7.128;2024-03-23T00:53:01;10.43;;;4.53;;
12151;SDS011;6139;51.274;7.128;2024-03-23T00:54:02;17.10;;;5.07;;
12151;SDS011;6139;51.274;7.128;2024-03-23T00:55:04;12.35;;;4.38;;
12151;SDS011;6139;51.274;7.128;2024-03-23T00:56:05;11.20;;;4.63;;
12151;SDS011;6139;51.274;7.128;2024-03-23T00:57:06;10.95;;;3.28;;
12151;SDS011;6139;51.274;7.128;2024-03-23T00:58:08;11.73;;;3.88;;
12151;SDS011;6139;51.274;7.128;2024-03-23T00:59:09;12.45;;;3.28;;
12151;SDS011;6139;51.274;7.128;2024-03-23T01:00:10;8.38;;;3.40;;
12151;SDS011;6139;51.274;7.128;2024-03-23T01:01:13;7.05;;;3.40;;
12151;SDS011;6139;51.274;7.128;2024-03-23T01:02:14;10.80;;;3.43;;
12151;SDS011;6139;51.274;7.128;2024-03-23T01:03:15;10.48;;;3.20;;
12151;SDS011;6139;51.274;7.128;2024-03-23T01:04:17;11.10;;;3.83;;
12151;SDS011;6139;51.274;7.128;2024-03-23T01:05:18;10.23;;;3.65;;
12151;SDS011;6139;51.274;7.128;2024-03-23T01:06:19;9.32;;;3.13;;
12151;SDS011;6139;51.274;7.128;2024-03-23T01:07:21;7.77;;;2.90;;
12151;SDS011;6139;51.274;7.128;2024-03-23T01:08:23;11.20;;;3.53;;
12151;SDS011;6139;51.274;7.128;2024-03-23T01:09:24;9.00;;;3.45;;
12151;SDS011;6139;51.274;7.128;2024-03-23T01:10:25;12.23;;;3.70;;
12151;SDS011;6139;51.274;7.128;2024-03-23T01:11:26;9.75;;;3.45;;
12151;SDS011;6139;51.274;7.128;2024-03-23T01:12:28;11.07;;;4.00;;
12151;SDS011;6139;51.274;7.128;2024-03-23T01:13:29;9.82;;;3.38;;
12151;SDS011;6139;51.274;7.128;2024-03-23T01:14:30;9.52;;;4.05;;
12151;SDS011;6139;51.274;7.128;2024-03-23T01:15:32;12.60;;;3.90;;
12151;SDS011;6139;51.274;7.128;2024-03-23T01:16:33;10.07;;;3.53;;
12151;SDS011;6139;51.274;7.128;2024-03-23T01:17:34;11.18;;;3.38;;
12151;SDS011;6139;51.274;7.128;2024-03-23T01:18:35;13.43;;;4.38;;
12151;SDS011;6139;51.274;7.128;2024-03-23T01:19:38;9.75;;;3.88;;
12151;SDS011;6139;51.274;7.128;2024-03-23T01:20:39;10.57;;;3.65;;
12151;SDS011;6139;51.274;7.128;2024-03-23T01:21:40;12.90;;;4.07;;
12151;SDS011;6139;51.274;7.128;2024-03-23T01:22:41;7.13;;;3.63;;
12151;SDS011;6139;51.274;7.128;2024-03-23T01:23:45;9.68;;;3.88;;
12151;SDS011;6139;51.274;7.128;2024-03-23T01:24:46;11.98;;;4.00;;
12151;SDS011;6139;51.274;7.128;2024-03-23T01:25:51;8.85;;;4.00;;
12151;SDS011;6139;51.274;7.128;2024-03-23T01:26:52;9.53;;;3.73;;
12151;SDS011;6139;51.274;7.128;2024-03-23T01:27:54;9.35;;;4.32;;
12151;SDS011;6139;51.274;7.128;2024-03-23T01:28:55;12.07;;;4.00;;
12151;SDS011;6139;51.274;7.128;2024-03-23T01:29:56;11.60;;;3.85;;
12151;SDS011;6139;51.274;7.128;2024-03-23T01:30:57;10.73;;;3.97;;
12151;SDS011;6139;51.274;7.128;2024-03-23T01:31:59;12.38;;;4.97;;
12151;SDS011;6139;51.274;7.128;2024-03-23T01:33:00;13.15;;;4.30;;
12151;SDS011;6139;51.274;7.128;2024-03-23T01:34:01;9.43;;;4.65;;
12151;SDS011;6139;51.274;7.128;2024-03-23T01:35:01;9.43;;;4.30;;
12151;SDS011;6139;51.274;7.128;2024-03-23T01:36:04;13.85;;;4.85;;
12151;SDS011;6139;51.274;7.128;2024-03-23T01:37:05;11.40;;;4.97;;
12151;SDS011;6139;51.274;7.128;2024-03-23T01:38:06;9.60;;;4.57;;
12151;SDS011;6139;51.274;7.128;2024-03-23T01:39:08;9.40;;;4.50;;
12151;SDS011;6139;51.274;7.128;2024-03-23T01:40:11;13.27;;;4.60;;
12151;SDS011;6139;51.274;7.128;2024-03-23T01:41:13;10.55;;;4.97;;
12151;SDS011;6139;51.274;7.128;2024-03-23T01:42:14;11.70;;;4.35;;
12151;SDS011;6139;51.274;7.128;2024-03-23T01:43:15;11.98;;;4.70;;
12151;SDS011;6139;51.274;7.128;2024-03-23T01:44:16;9.25;;;4.80;;
12151;SDS011;6139;51.274;7.128;2024-03-23T01:45:18;13.85;;;5.00;;
12151;SDS011;6139;51.274;7.128;2024-03-23T01:46:20;13.90;;;5.50;;
12151;SDS011;6139;51.274;7.128;2024-03-23T01:47:21;10.50;;;4.53;;
12151;SDS011;6139;51.274;7.128;2024-03-23T01:48:22;12.32;;;4.45;;
12151;SDS011;6139;51.274;7.128;2024-03-23T01:49:24;12.50;;;5.10;;
12151;SDS011;6139;51.274;7.128;2024-03-23T01:50:26;12.68;;;4.15;;
12151;SDS011;6139;51.274;7.128;2024-03-23T01:51:27;11.07;;;5.57;;
12151;SDS011;6139;51.274;7.128;2024-03-23T01:52:29;13.83;;;4.97;;
12151;SDS011;6139;51.274;7.128;2024-03-23T01:53:31;9.38;;;4.25;;
12151;SDS011;6139;51.274;7.128;2024-03-23T01:54:34;7.47;;;3.85;;
12151;SDS011;6139;51.274;7.128;2024-03-23T01:55:35;7.28;;;3.75;;
12151;SDS011;6139;51.274;7.128;2024-03-23T01:56:40;7.35;;;3.90;;
12151;SDS011;6139;51.274;7.128;2024-03-23T01:57:42;5.90;;;3.53;;
12151;SDS011;6139;51.274;7.128;2024-03-23T01:58:43;8.60;;;3.80;;
12151;SDS011;6139;51.274;7.128;2024-03-23T01:59:43;9.15;;;4.35;;
12151;SDS011;6139;51.274;7.128;2024-03-23T02:00:44;8.65;;;3.53;;
12151;SDS011;6139;51.274;7.128;2024-03-23T02:01:47;11.40;;;3.97;;
12151;SDS011;6139;51.274;7.128;2024-03-23T02:02:48;8.75;;;3.53;;
12151;SDS011;6139;51.274;7.128;2024-03-23T02:03:49;12.82;;;3.80;;
12151;SDS011;6139;51.274;7.128;2024-03-23T02:04:50;9.40;;;3.90;;
12151;SDS011;6139;51.274;7.128;2024-03-23T02:05:53;9.43;;;4.13;;
12151;SDS011;6139;51.274;7.128;2024-03-23T02:06:55;10.15;;;3.78;;
12151;SDS011;6139;51.274;7.128;2024-03-23T02:07:56;10.17;;;3.63;;
12151;SDS011;6139;51.274;7.128;2024-03-23T02:08:57;9.07;;;3.85;;
12151;SDS011;6139;51.274;7.128;2024-03-23T02:10:01;7.95;;;3.03;;
12151;SDS011;6139;51.274;7.128;2024-03-23T02:11:03;6.90;;;2.95;;
12151;SDS011;6139;51.274;7.128;2024-03-23T02:12:04;10.80;;;3.30;;
12151;SDS011;6139;51.274;7.128;2024-03-23T02:13:05;7.30;;;2.90;;
12151;SDS011;6139;51.274;7.128;2024-03-23T02:14:08;13.38;;;3.38;;
12151;SDS011;6139;51.274;7.128;2024-03-23T02:15:09;5.45;;;3.17;;
12151;SDS011;6139;51.274;7.128;2024-03-23T02:16:10;7.93;;;3.22;;
12151;SDS011;6139;51.274;7.128;2024-03-23T02:17:11;7.50;;;2.65;;
12151;SDS011;6139;51.274;7.128;2024-03-23T02:18:14;5.53;;;2.63;;
12151;SDS011;6139;51.274;7.128;2024-03-23T02:19:15;7.78;;;2.92;;
12151;SDS011;6139;51.274;7.128;2024-03-23T02:20:16;7.97;;;3.33;;
12151;SDS011;6139;51.274;7.128;2024-03-23T02:21:17;8.40;;;2.70;;
12151;SDS011;6139;51.274;7.128;2024-03-23T02:22:19;4.90;;;2.22;;
12151;SDS011;6139;51.274;7.128;2024-03-23T02:23:21;7.80;;;2.83;;
12151;SDS011;6139;51.274;7.128;2024-03-23T02:24:22;8.90;;;2.67;;
12151;SDS011;6139;51.274;7.128;2024-03-23T02:25:23;6.07;;;2.15;;
12151;SDS011;6139;51.274;7.128;2024-03-23T02:26:25;8.70;;;2.40;;
12151;SDS011;6139;51.274;7.128;2024-03-23T02:27:26;8.35;;;2.42;;
12151;SDS011;6139;51.274;7.128;2024-03-23T02:28:27;5.55;;;2.28;;
12151;SDS011;6139;51.274;7.128;2024-03-23T02:29:28;7.57;;;2.37;;
12151;SDS011;6139;51.274;7.128;2024-03-23T02:30:30;7.33;;;2.23;;
12151;SDS011;6139;51.274;7.128;2024-03-23T02:31:31;8.07;;;3.07;;
12151;SDS011;6139;51.274;7.128;2024-03-23T02:32:31;4.90;;;2.20;;
12151;SDS011;6139;51.274;7.128;2024-03-23T02:33:32;6.22;;;2.10;;
12151;SDS011;6139;51.274;7.128;2024-03-23T02:34:38;5.47;;;2.10;;
12151;SDS011;6139;51.274;7.128;2024-03-23T02:35:39;4.80;;;2.03;;
12151;SDS011;6139;51.274;7.128;2024-03-23T02:36:40;4.45;;;1.98;;
12151;SDS011;6139;51.274;7.128;2024-03-23T02:37:41;7.90;;;2.28;;
12151;SDS011;6139;51.274;7.128;2024-03-23T02:38:44;6.18;;;1.98;;
12151;SDS011;6139;51.274;7.128;2024-03-23T02:39:45;7.70;;;2.00;;
12151;SDS011;6139;51.274;7.128;2024-03-23T02:40:46;5.40;;;1.90;;
12151;SDS011;6139;51.274;7.128;2024-03-23T02:41:47;4.20;;;2.00;;
12151;SDS011;6139;51.274;7.128;2024-03-23T02:42:49;4.88;;;2.05;;
12151;SDS011;6139;51.274;7.128;2024-03-23T02:43:50;4.90;;;1.98;;
12151;SDS011;6139;51.274;7.128;2024-03-23T02:44:51;5.85;;;2.00;;
12151;SDS011;6139;51.274;7.128;2024-03-23T02:45:52;7.18;;;1.70;;
12151;SDS011;6139;51.274;7.128;2024-03-23T02:46:53;5.13;;;1.98;;
12151;SDS011;6139;51.274;7.128;2024-03-23T02:47:54;8.27;;;2.00;;
12151;SDS011;6139;51.274;7.128;2024-03-23T02:48:55;6.47;;;2.33;;
12151;SDS011;6139;51.274;7.128;2024-03-23T02:49:58;5.57;;;2.03;;
12151;SDS011;6139;51.274;7.128;2024-03-23T02:50:58;7.53;;;2.05;;
12151;SDS011;6139;51.274;7.128;2024-03-23T02:51:59;6.18;;;2.10;;
12151;SDS011;6139;51.274;7.128;2024-03-23T02:53:00;8.65;;;2.08;;
12151;SDS011;6139;51.274;7.128;2024-03-23T02:54:04;4.95;;;1.60;;
12151;SDS011;6139;51.274;7.128;2024-03-23T02:55:05;3.83;;;1.73;;
12151;SDS011;6139;51.274;7.128;2024-03-23T02:56:06;4.53;;;1.70;;
12151;SDS011;6139;51.274;7.128;2024-03-23T02:57:08;8.38;;;2.17;;
12151;SDS011;6139;51.274;7.128;2024-03-23T02:58:09;4.23;;;1.90;;
12151;SDS011;6139;51.274;7.128;2024-03-23T02:59:10;6.60;;;1.70;;
12151;SDS011;6139;51.274;7.128;2024-03-23T03:00:11;6.22;;;1.65;;
12151;SDS011;6139;51.274;7.128;2024-03-23T03:01:14;8.88;;;2.10;;
12151;SDS011;6139;51.274;7.128;2024-03-23T03:02:15;4.97;;;1.90;;
12151;SDS011;6139;51.274;7.128;2024-03-23T03:03:16;8.63;;;1.90;;
12151;SDS011;6139;51.274;7.128;2024-03-23T03:04:18;4.40;;;1.95;;
12151;SDS011;6139;51.274;7.128;2024-03-23T03:05:19;4.53;;;2.00;;
12151;SDS011;6139;51.274;7.128;2024-03-23T03:06:23;5.85;;;1.73;;
12151;SDS011;6139;51.274;7.128;2024-03-23T03:07:24;4.57;;;1.73;;
12151;SDS011;6139;51.274;7.128;2024-03-23T03:08:26;7.45;;;2.20;;
12151;SDS011;6139;51.274;7.128;2024-03-23T03:09:29;5.10;;;2.00;;
12151;SDS011;6139;51.274;7.128;2024-03-23T03:10:30;5.50;;;1.70;;
12151;SDS011;6139;51.274;7.128;2024-03-23T03:11:35;4.75;;;1.80;;
12151;SDS011;6139;51.274;7.128;2024-03-23T03:12:36;8.35;;;2.25;;
12151;SDS011;6139;51.274;7.128;2024-03-23T03:13:37;4.50;;;2.17;;
12151;SDS011;6139;51.274;7.128;2024-03-23T03:14:38;7.80;;;2.27;;
12151;SDS011;6139;51.274;7.128;2024-03-23T03:15:39;5.47;;;2.20;;
12151;SDS011;6139;51.274;7.128;2024-03-23T03:16:41;7.30;;;1.70;;
12151;SDS011;6139;51.274;7.128;2024-03-23T03:17:42;8.60;;;2.20;;
12151;SDS011;6139;51.274;7.128;2024-03-23T03:18:43;6.03;;;2.22;;
12151;SDS011;6139;51.274;7.128;2024-03-23T03:19:46;7.57;;;1.87;;
12151;SDS011;6139;51.274;7.128;2024-03-23T03:20:48;9.18;;;2.20;;
12151;SDS011;6139;51.274;7.128;2024-03-23T03:21:49;5.70;;;2.37;;
12151;SDS011;6139;51.274;7.128;2024-03-23T03:22:50;4.57;;;1.70;;
12151;SDS011;6139;51.274;7.128;2024-03-23T03:23:54;7.88;;;2.83;;
12151;SDS011;6139;51.274;7.128;2024-03-23T03:24:58;5.00;;;2.10;;
12151;SDS011;6139;51.274;7.128;2024-03-23T03:26:00;6.95;;;1.98;;
12151;SDS011;6139;51.274;7.128;2024-03-23T03:27:01;3.33;;;1.83;;
12151;SDS011;6139;51.274;7.128;2024-03-23T03:28:04;7.20;;;2.00;;
12151;SDS011;6139;51.274;7.128;2024-03-23T03:29:05;4.47;;;1.90;;
12151;SDS011;6139;51.274;7.128;2024-03-23T03:30:06;4.43;;;1.90;;
12151;SDS011;6139;51.274;7.128;2024-03-23T03:31:08;3.58;;;1.73;;
12151;SDS011;6139;51.274;7.128;2024-03-23T03:32:11;6.70;;;1.97;;
12151;SDS011;6139;51.274;7.128;2024-03-23T03:33:12;10.38;;;2.50;;
12151;SDS011;6139;51.274;7.128;2024-03-23T03:34:13;6.15;;;1.65;;
12151;SDS011;6139;51.274;7.128;2024-03-23T03:35:14;9.77;;;2.00;;
12151;SDS011;6139;51.274;7.128;2024-03-23T03:36:16;5.85;;;2.17;;
12151;SDS011;6139;51.274;7.128;2024-03-23T03:37:17;6.57;;;2.15;;
12151;SDS011;6139;51.274;7.128;2024-03-23T03:38:18;8.18;;;2.38;;
12151;SDS011;6139;51.274;7.128;2024-03-23T03:39:19;4.53;;;1.80;;
12151;SDS011;6139;51.274;7.128;2024-03-23T03:40:24;8.15;;;2.00;;
12151;SDS011;6139;51.274;7.128;2024-03-23T03:41:25;4.88;;;1.98;;
12151;SDS011;6139;51.274;7.128;2024-03-23T03:42:26;6.45;;;1.95;;
12151;SDS011;6139;51.274;7.128;2024-03-23T03:43:27;4.80;;;2.20;;
12151;SDS011;6139;51.274;7.128;2024-03-23T03:44:29;4.95;;;1.90;;
12151;SDS011;6139;51.274;7.128;2024-03-23T03:45:30;5.33;;;2.33;;
12151;SDS011;6139;51.274;7.128;2024-03-23T03:46:31;5.38;;;1.92;;
12151;SDS011;6139;51.274;7.128;2024-03-23T03:47:32;5.77;;;1.97;;
12151;SDS011;6139;51.274;7.128;2024-03-23T03:48:33;5.60;;;1.90;;
12151;SDS011;6139;51.274;7.128;2024-03-23T03:49:34;8.65;;;2.10;;
12151;SDS011;6139;51.274;7.128;2024-03-23T03:50:35;4.97;;;1.92;;
12151;SDS011;6139;51.274;7.128;2024-03-23T03:51:36;6.40;;;2.03;;
12151;SDS011;6139;51.274;7.128;2024-03-23T03:52:38;9.23;;;2.25;;
12151;SDS011;6139;51.274;7.128;2024-03-23T03:53:39;8.98;;;2.47;;
12151;SDS011;6139;51.274;7.128;2024-03-23T03:54:40;6.22;;;1.90;;
12151;SDS011;6139;51.274;7.128;2024-03-23T03:55:43;7.53;;;2.00;;
12151;SDS011;6139;51.274;7.128;2024-03-23T03:56:45;5.03;;;2.00;;
12151;SDS011;6139;51.274;7.128;2024-03-23T03:57:45;6.18;;;1.83;;
12151;SDS011;6139;51.274;7.128;2024-03-23T03:58:46;5.47;;;1.98;;
12151;SDS011;6139;51.274;7.128;2024-03-23T03:59:47;5.38;;;2.28;;
12151;SDS011;6139;51.274;7.128;2024-03-23T04:00:49;8.23;;;2.22;;
12151;SDS011;6139;51.274;7.128;2024-03-23T04:01:50;6.90;;;2.00;;
12151;SDS011;6139;51.274;7.128;2024-03-23T04:02:51;3.47;;;1.75;;
12151;SDS011;6139;51.274;7.128;2024-03-23T04:03:52;5.63;;;1.75;;
12151;SDS011;6139;51.274;7.128;2024-03-23T04:04:54;7.78;;;1.95;;
12151;SDS011;6139;51.274;7.128;2024-03-23T04:05:55;3.85;;;1.77;;
12151;SDS011;6139;51.274;7.128;2024-03-23T04:06:58;8.03;;;2.77;;
12151;SDS011;6139;51.274;7.128;2024-03-23T04:07:59;6.63;;;1.98;;
12151;SDS011;6139;51.274;7.128;2024-03-23T04:09:00;6.53;;;2.83;;
12151;SDS011;6139;51.274;7.128;2024-03-23T04:10:02;6.15;;;2.10;;
12151;SDS011;6139;51.274;7.128;2024-03-23T04:11:09;8.63;;;2.33;;
12151;SDS011;6139;51.274;7.128;2024-03-23T04:12:10;6.00;;;2.60;;
12151;SDS011;6139;51.274;7.128;2024-03-23T04:13:11;8.68;;;2.25;;
12151;SDS011;6139;51.274;7.128;2024-03-23T04:14:13;6.30;;;2.40;;
12151;SDS011;6139;51.274;7.128;2024-03-23T04:15:14;5.80;;;2.47;;
12151;SDS011;6139;51.274;7.128;2024-03-23T04:16:24;8.80;;;2.83;;
12151;SDS011;6139;51.274;7.128;2024-03-23T04:17:27;8.63;;;2.43;;
12151;SDS011;6139;51.274;7.128;2024-03-23T04:18:31;7.07;;;2.60;;
12151;SDS011;6139;51.274;7.128;2024-03-23T04:19:32;7.28;;;2.60;;
12151;SDS011;6139;51.274;7.128;2024-03-23T04:20:34;9.55;;;2.83;;
12151;SDS011;6139;51.274;7.128;2024-03-23T04:21:35;8.00;;;2.90;;
12151;SDS011;6139;51.274;7.128;2024-03-23T04:22:37;8.52;;;3.15;;
12151;SDS011;6139;51.274;7.128;2024-03-23T04:23:38;11.23;;;3.22;;
12151;SDS011;6139;51.274;7.128;2024-03-23T04:24:40;8.50;;;3.10;;
12151;SDS011;6139;51.274;7.128;2024-03-23T04:25:42;8.20;;;2.75;;
12151;SDS011;6139;51.274;7.128;2024-03-23T04:26:44;7.35;;;2.70;;
12151;SDS011;6139;51.274;7.128;2024-03-23T04:27:47;7.70;;;3.10;;
12151;SDS011;6139;51.274;7.128;2024-03-23T04:28:48;7.95;;;2.97;;
12151;SDS011;6139;51.274;7.128;2024-03-23T04:29:49;11.13;;;3.22;;
12151;SDS011;6139;51.274;7.128;2024-03-23T04:30:50;7.83;;;3.60;;
12151;SDS011;6139;51.274;7.128;2024-03-23T04:31:52;7.82;;;3.03;;
12151;SDS011;6139;51.274;7.128;2024-03-23T04:32:53;9.75;;;3.03;;
12151;SDS011;6139;51.274;7.128;2024-03-23T04:33:54;9.07;;;3.00;;
12151;SDS011;6139;51.274;7.128;2024-03-23T04:34:55;7.87;;;3.63;;
12151;SDS011;6139;51.274;7.128;2024-03-23T04:35:57;9.25;;;3.08;;
12151;SDS011;6139;51.274;7.128;2024-03-23T04:36:58;5.95;;;2.90;;
12151;SDS011;6139;51.274;7.128;2024-03-23T04:37:59;9.40;;;3.53;;
12151;SDS011;6139;51.274;7.128;2024-03-23T04:39:01;7.63;;;3.28;;
12151;SDS011;6139;51.274;7.128;2024-03-23T04:40:02;9.05;;;3.42;;
12151;SDS011;6139;51.274;7.128;2024-03-23T04:41:05;6.90;;;2.58;;
12151;SDS011;6139;51.274;7.128;2024-03-23T04:42:07;9.30;;;3.08;;
12151;SDS011;6139;51.274;7.128;2024-03-23T04:43:09;8.25;;;3.15;;
12151;SDS011;6139;51.274;7.128;2024-03-23T04:44:10;7.00;;;2.80;;
12151;SDS011;6139;51.274;7.128;2024-03-23T04:45:13;8.98;;;3.63;;
12151;SDS011;6139;51.274;7.128;2024-03-23T04:46:14;6.63;;;3.25;;
12151;SDS011;6139;51.274;7.128;2024-03-23T04:47:16;9.23;;;3.28;;
12151;SDS011;6139;51.274;7.128;2024-03-23T04:48:19;8.57;;;3.47;;
12151;SDS011;6139;51.274;7.128;2024-03-23T04:49:21;10.90;;;3.47;;
12151;SDS011;6139;51.274;7.128;2024-03-23T04:50:23;7.35;;;3.20;;
12151;SDS011;6139;51.274;7.128;2024-03-23T04:51:24;9.77;;;3.42;;
12151;SDS011;6139;51.274;7.128;2024-03-23T04:52:26;7.50;;;3.38;;
12151;SDS011;6139;51.274;7.128;2024-03-23T04:53:27;6.22;;;3.50;;
12151;SDS011;6139;51.274;7.128;2024-03-23T04:54:29;6.45;;;3.33;;
12151;SDS011;6139;51.274;7.128;2024-03-23T04:55:30;6.75;;;3.20;;
12151;SDS011;6139;51.274;7.128;2024-03-23T04:56:32;9.70;;;3.15;;
12151;SDS011;6139;51.274;7.128;2024-03-23T04:57:35;8.15;;;3.38;;
12151;SDS011;6139;51.274;7.128;2024-03-23T04:58:36;8.40;;;3.25;;
12151;SDS011;6139;51.274;7.128;2024-03-23T04:59:37;8.50;;;3.58;;
12151;SDS011;6139;51.274;7.128;2024-03-23T05:00:37;7.17;;;3.50;;
12151;SDS011;6139;51.274;7.128;2024-03-23T05:01:39;7.20;;;3.20;;
12151;SDS011;6139;51.274;7.128;2024-03-23T05:02:43;9.50;;;3.47;;
12151;SDS011;6139;51.274;7.128;2024-03-23T05:03:45;8.65;;;3.45;;
12151;SDS011;6139;51.274;7.128;2024-03-23T05:04:49;10.50;;;3.40;;
12151;SDS011;6139;51.274;7.128;2024-03-23T05:05:50;10.40;;;3.35;;
12151;SDS011;6139;51.274;7.128;2024-03-23T05:06:52;9.75;;;3.10;;
12151;SDS011;6139;51.274;7.128;2024-03-23T05:07:53;8.25;;;3.25;;
12151;SDS011;6139;51.274;7.128;2024-03-23T05:08:54;10.55;;;3.40;;
12151;SDS011;6139;51.274;7.128;2024-03-23T05:09:55;9.15;;;3.22;;
12151;SDS011;6139;51.274;7.128;2024-03-23T05:10:56;8.80;;;3.58;;
12151;SDS011;6139;51.274;7.128;2024-03-23T05:11:58;10.18;;;3.35;;
12151;SDS011;6139;51.274;7.128;2024-03-23T05:13:01;7.57;;;3.70;;
12151;SDS011;6139;51.274;7.128;2024-03-23T05:14:02;8.05;;;2.85;;
12151;SDS011;6139;51.274;7.128;2024-03-23T05:15:05;8.33;;;3.00;;
12151;SDS011;6139;51.274;7.128;2024-03-23T05:16:06;9.23;;;3.17;;
12151;SDS011;6139;51.274;7.128;2024-03-23T05:17:07;6.05;;;2.90;;
12151;SDS011;6139;51.274;7.128;2024-03-23T05:18:08;8.98;;;3.45;;
12151;SDS011;6139;51.274;7.128;2024-03-23T05:19:10;7.07;;;3.30;;
12151;SDS011;6139;51.274;7.128;2024-03-23T05:20:11;8.23;;;2.93;;
12151;SDS011;6139;51.274;7.128;2024-03-23T05:21:12;9.30;;;3.00;;
12151;SDS011;6139;51.274;7.128;2024-03-23T05:22:14;7.40;;;3.10;;
12151;SDS011;6139;51.274;7.128;2024-03-23T05:23:15;8.67;;;3.30;;
12151;SDS011;6139;51.274;7.128;2024-03-23T05:24:16;9.47;;;3.70;;
12151;SDS011;6139;51.274;7.128;2024-03-23T05:25:17;9.10;;;3.42;;
12151;SDS011;6139;51.274;7.128;2024-03-23T05:26:19;6.25;;;3.40;;
12151;SDS011;6139;51.274;7.128;2024-03-23T05:27:20;7.22;;;3.55;;
12151;SDS011;6139;51.274;7.128;2024-03-23T05:28:22;10.38;;;4.85;;
12151;SDS011;6139;51.274;7.128;2024-03-23T05:29:25;5.80;;;3.10;;
12151;SDS011;6139;51.274;7.128;2024-03-23T05:30:25;9.65;;;3.75;;
12151;SDS011;6139;51.274;7.128;2024-03-23T05:31:27;7.37;;;3.67;;
12151;SDS011;6139;51.274;7.128;2024-03-23T05:32:29;10.35;;;4.13;;
12151;SDS011;6139;51.274;7.128;2024-03-23T05:33:31;11.85;;;4.40;;
12151;SDS011;6139;51.274;7.128;2024-03-23T05:34:31;9.00;;;4.15;;
12151;SDS011;6139;51.274;7.128;2024-03-23T05:35:33;11.93;;;5.85;;
12151;SDS011;6139;51.274;7.128;2024-03-23T05:36:34;7.03;;;4.43;;
12151;SDS011;6139;51.274;7.128;2024-03-23T05:37:36;12.60;;;5.38;;
12151;SDS011;6139;51.274;7.128;2024-03-23T05:38:37;8.15;;;4.75;;
12151;SDS011;6139;51.274;7.128;2024-03-23T05:39:38;10.15;;;5.97;;
12151;SDS011;6139;51.274;7.128;2024-03-23T05:40:39;10.07;;;6.50;;
12151;SDS011;6139;51.274;7.128;2024-03-23T05:41:41;11.32;;;6.07;;
12151;SDS011;6139;51.274;7.128;2024-03-23T05:42:42;12.55;;;6.80;;
12151;SDS011;6139;51.274;7.128;2024-03-23T05:43:44;12.07;;;5.72;;
12151;SDS011;6139;51.274;7.128;2024-03-23T05:44:46;14.38;;;6.97;;
12151;SDS011;6139;51.274;7.128;2024-03-23T05:45:52;10.95;;;6.43;;
12151;SDS011;6139;51.274;7.128;2024-03-23T05:46:54;15.43;;;6.90;;
12151;SDS011;6139;51.274;7.128;2024-03-23T05:47:55;10.63;;;6.33;;
12151;SDS011;6139;51.274;7.128;2024-03-23T05:48:57;11.13;;;6.63;;
12151;SDS011;6139;51.274;7.128;2024-03-23T05:50:02;9.77;;;6.53;;
12151;SDS011;6139;51.274;7.128;2024-03-23T05:51:04;8.97;;;5.87;;
12151;SDS011;6139;51.274;7.128;2024-03-23T05:52:05;10.73;;;5.50;;
12151;SDS011;6139;51.274;7.128;2024-03-23T05:53:07;11.18;;;5.80;;
12151;SDS011;6139;51.274;7.128;2024-03-23T05:54:08;9.57;;;4.90;;
12151;SDS011;6139;51.274;7.128;2024-03-23T05:55:09;10.60;;;5.17;;
12151;SDS011;6139;51.274;7.128;2024-03-23T05:56:10;9.00;;;4.77;;
12151;SDS011;6139;51.274;7.128;2024-03-23T05:57:11;11.10;;;4.60;;
12151;SDS011;6139;51.274;7.128;2024-03-23T05:58:14;9.33;;;4.67;;
12151;SDS011;6139;51.274;7.128;2024-03-23T05:59:17;11.57;;;4.67;;
12151;SDS011;6139;51.274;7.128;2024-03-23T06:00:18;12.82;;;5.13;;
12151;SDS011;6139;51.274;7.128;2024-03-23T06:01:19;9.25;;;4.20;;
12151;SDS011;6139;51.274;7.128;2024-03-23T06:02:22;9.88;;;4.32;;
12151;SDS011;6139;51.274;7.128;2024-03-23T06:03:23;7.13;;;4.40;;
12151;SDS011;6139;51.274;7.128;2024-03-23T06:04:24;10.25;;;4.43;;
12151;SDS011;6139;51.274;7.128;2024-03-23T06:05:25;13.47;;;4.57;;
12151;SDS011;6139;51.274;7.128;2024-03-23T06:06:27;9.77;;;4.45;;
12151;SDS011;6139;51.274;7.128;2024-03-23T06:07:30;13.67;;;4.57;;
12151;SDS011;6139;51.274;7.128;2024-03-23T06:08:32;11.18;;;4.30;;
12151;SDS011;6139;51.274;7.128;2024-03-23T06:09:33;9.40;;;4.22;;
12151;SDS011;6139;51.274;7.128;2024-03-23T06:10:35;7.88;;;4.00;;
12151;SDS011;6139;51.274;7.128;2024-03-23T06:11:36;7.53;;;4.18;;
12151;SDS011;6139;51.274;7.128;2024-03-23T06:12:37;11.20;;;4.17;;
12151;SDS011;6139;51.274;7.128;2024-03-23T06:13:38;12.23;;;4.55;;
12151;SDS011;6139;51.274;7.128;2024-03-23T06:14:41;7.90;;;3.75;;
12151;SDS011;6139;51.274;7.128;2024-03-23T06:15:42;10.40;;;4.10;;
12151;SDS011;6139;51.274;7.128;2024-03-23T06:16:43;8.20;;;4.07;;
12151;SDS011;6139;51.274;7.128;2024-03-23T06:17:44;7.40;;;4.17;;
12151;SDS011;6139;51.274;7.128;2024-03-23T06:18:46;8.53;;;4.67;;
12151;SDS011;6139;51.274;7.128;2024-03-23T06:19:47;12.63;;;4.87;;
12151;SDS011;6139;51.274;7.128;2024-03-23T06:20:48;9.80;;;4.20;;
12151;SDS011;6139;51.274;7.128;2024-03-23T06:21:50;6.83;;;3.87;;
12151;SDS011;6139;51.274;7.128;2024-03-23T06:22:51;7.90;;;4.45;;
12151;SDS011;6139;51.274;7.128;2024-03-23T06:23:52;9.45;;;4.45;;
12151;SDS011;6139;51.274;7.128;2024-03-23T06:24:53;6.68;;;4.05;;
12151;SDS011;6139;51.274;7.128;2024-03-23T06:25:55;11.52;;;4.60;;
12151;SDS011;6139;51.274;7.128;2024-03-23T06:26:55;8.10;;;4.55;;
12151;SDS011;6139;51.274;7.128;2024-03-23T06:27:56;6.85;;;4.03;;
12151;SDS011;6139;51.274;7.128;2024-03-23T06:28:58;11.27;;;4.13;;
12151;SDS011;6139;51.274;7.128;2024-03-23T06:30:01;10.23;;;4.60;;
12151;SDS011;6139;51.274;7.128;2024-03-23T06:31:03;9.07;;;4.93;;
12151;SDS011;6139;51.274;7.128;2024-03-23T06:32:08;10.17;;;4.83;;
12151;SDS011;6139;51.274;7.128;2024-03-23T06:33:09;7.33;;;5.30;;
12151;SDS011;6139;51.274;7.128;2024-03-23T06:34:11;10.90;;;5.30;;
12151;SDS011;6139;51.274;7.128;2024-03-23T06:35:12;13.23;;;5.70;;
12151;SDS011;6139;51.274;7.128;2024-03-23T06:36:13;11.98;;;5.53;;
12151;SDS011;6139;51.274;7.128;2024-03-23T06:37:14;12.13;;;6.30;;
12151;SDS011;6139;51.274;7.128;2024-03-23T06:38:16;12.15;;;6.00;;
12151;SDS011;6139;51.274;7.128;2024-03-23T06:39:17;12.27;;;6.37;;
12151;SDS011;6139;51.274;7.128;2024-03-23T06:40:18;16.47;;;6.60;;
12151;SDS011;6139;51.274;7.128;2024-03-23T06:41:19;11.17;;;5.97;;
12151;SDS011;6139;51.274;7.128;2024-03-23T06:42:21;12.07;;;6.10;;
12151;SDS011;6139;51.274;7.128;2024-03-23T06:43:22;12.57;;;6.28;;
12151;SDS011;6139;51.274;7.128;2024-03-23T06:44:23;9.80;;;6.47;;
12151;SDS011;6139;51.274;7.128;2024-03-23T06:45:26;11.27;;;6.50;;
12151;SDS011;6139;51.274;7.128;2024-03-23T06:46:27;10.43;;;5.93;;
12151;SDS011;6139;51.274;7.128;2024-03-23T06:47:28;14.02;;;6.10;;
12151;SDS011;6139;51.274;7.128;2024-03-23T06:48:29;11.48;;;7.25;;
12151;SDS011;6139;51.274;7.128;2024-03-23T06:49:31;12.20;;;6.32;;
12151;SDS011;6139;51.274;7.128;2024-03-23T06:50:32;12.82;;;6.53;;
12151;SDS011;6139;51.274;7.128;2024-03-23T06:51:33;8.87;;;5.70;;
12151;SDS011;6139;51.274;7.128;2024-03-23T06:52:34;12.97;;;6.77;;
12151;SDS011;6139;51.274;7.128;2024-03-23T06:53:36;11.40;;;6.33;;
12151;SDS011;6139;51.274;7.128;2024-03-23T06:54:37;12.50;;;7.03;;
12151;SDS011;6139;51.274;7.128;2024-03-23T06:55:38;15.97;;;7.20;;
12151;SDS011;6139;51.274;7.128;2024-03-23T06:56:38;14.20;;;7.10;;
12151;SDS011;6139;51.274;7.128;2024-03-23T06:57:40;14.47;;;6.30;;
12151;SDS011;6139;51.274;7.128;2024-03-23T06:58:41;14.03;;;6.53;;
12151;SDS011;6139;51.274;7.128;2024-03-23T06:59:42;15.50;;;6.93;;
12151;SDS011;6139;51.274;7.128;2024-03-23T07:00:44;14.73;;;6.65;;
12151;SDS011;6139;51.274;7.128;2024-03-23T07:01:46;13.85;;;6.57;;
12151;SDS011;6139;51.274;7.128;2024-03-23T07:02:47;14.60;;;6.83;;
12151;SDS011;6139;51.274;7.128;2024-03-23T07:03:48;16.17;;;7.30;;
12151;SDS011;6139;51.274;7.128;2024-03-23T07:04:49;14.47;;;7.27;;
12151;SDS011;6139;51.274;7.128;2024-03-23T07:05:51;12.13;;;7.23;;
12151;SDS011;6139;51.274;7.128;2024-03-23T07:06:52;11.87;;;6.83;;
12151;SDS011;6139;51.274;7.128;2024-03-23T07:07:53;16.85;;;6.78;;